sensor_id;sensor_type;location;lat;lon;timestamp;P1;durP1;ratioP1;P2;durP2;ratioP2
48241;SDS011;34041;51.812;4.622;2023-02-28T00:01:40;3.33;;;1.92;;
48241;SDS011;34041;51.812;4.622;2023-02-28T00:04:41;2.77;;;1.80;;
48241;SDS011;34041;51.812;4.622;2023-02-28T00:07:41;3.50;;;2.13;;
48241;SDS011;34041;51.812;4.622;2023-02-28T00:10:42;3.75;;;2.38;;
48241;SDS011;34041;51.812;4.622;2023-02-28T00:13:43;3.50;;;2.03;;
48241;SDS011;34041;51.812;4.622;2023-02-28T00:16:46;6.35;;;1.80;;
48241;SDS011;34041;51.812;4.622;2023-02-28T00:19:47;3.53;;;2.17;;
48241;SDS011;34041;51.812;4.622;2023-02-28T00:22:49;5.18;;;2.13;;
48241;SDS011;34041;51.812;4.622;2023-02-28T00:25:50;3.90;;;2.30;;
48241;SDS011;34041;51.812;4.622;2023-02-28T00:28:51;3.20;;;2.22;;
48241;SDS011;34041;51.812;4.622;2023-02-28T00:31:52;3.75;;;1.88;;
48241;SDS011;34041;51.812;4.622;2023-02-28T00:34:52;2.10;;;1.50;;
48241;SDS011;34041;51.812;4.622;2023-02-28T00:37:53;4.05;;;2.00;;
48241;SDS011;34041;51.812;4.622;2023-02-28T00:40:53;3.60;;;1.77;;
48241;SDS011;34041;51.812;4.622;2023-02-28T00:43:53;3.13;;;2.27;;
48241;SDS011;34041;51.812;4.622;2023-02-28T00:46:53;4.00;;;2.13;;
48241;SDS011;34041;51.812;4.622;2023-02-28T00:49:54;2.97;;;1.90;;
48241;SDS011;34041;51.812;4.622;2023-02-28T00:52:54;3.50;;;1.80;;
48241;SDS011;34041;51.812;4.622;2023-02-28T00:55:54;3.80;;;1.95;;
48241;SDS011;34041;51.812;4.622;2023-02-28T00:58:54;3.60;;;1.80;;
48241;SDS011;34041;51.812;4.622;2023-02-28T01:01:55;2.90;;;2.03;;
48241;SDS011;34041;51.812;4.622;2023-02-28T01:04:55;4.80;;;2.83;;
48241;SDS011;34041;51.812;4.622;2023-02-28T01:07:56;2.65;;;1.60;;
48241;SDS011;34041;51.812;4.622;2023-02-28T01:10:57;4.17;;;2.07;;
48241;SDS011;34041;51.812;4.622;2023-02-28T01:13:57;4.73;;;2.27;;
48241;SDS011;34041;51.812;4.622;2023-02-28T01:16:57;2.67;;;1.90;;
48241;SDS011;34041;51.812;4.622;2023-02-28T01:19:57;3.30;;;2.08;;
48241;SDS011;34041;51.812;4.622;2023-02-28T01:22:57;3.50;;;2.40;;
48241;SDS011;34041;51.812;4.622;2023-02-28T01:26:03;2.80;;;1.87;;
48241;SDS011;34041;51.812;4.622;2023-02-28T01:29:03;4.97;;;2.28;;
48241;SDS011;34041;51.812;4.622;2023-02-28T01:32:03;5.00;;;2.75;;
48241;SDS011;34041;51.812;4.622;2023-02-28T01:35:04;4.07;;;2.25;;
48241;SDS011;34041;51.812;4.622;2023-02-28T01:38:04;5.13;;;2.35;;
48241;SDS011;34041;51.812;4.622;2023-02-28T01:41:04;4.78;;;2.45;;
48241;SDS011;34041;51.812;4.622;2023-02-28T01:44:06;4.28;;;1.98;;
48241;SDS011;34041;51.812;4.622;2023-02-28T01:47:06;3.65;;;1.80;;
48241;SDS011;34041;51.812;4.622;2023-02-28T01:50:12;6.22;;;2.50;;
48241;SDS011;34041;51.812;4.622;2023-02-28T01:53:14;3.65;;;2.15;;
48241;SDS011;34041;51.812;4.622;2023-02-28T01:56:16;4.43;;;1.88;;
48241;SDS011;34041;51.812;4.622;2023-02-28T01:59:27;3.28;;;2.47;;
48241;SDS011;34041;51.812;4.622;2023-02-28T02:02:29;4.07;;;2.10;;
48241;SDS011;34041;51.812;4.622;2023-02-28T02:05:30;3.05;;;1.73;;
48241;SDS011;34041;51.812;4.622;2023-02-28T02:08:34;3.35;;;1.98;;
48241;SDS011;34041;51.812;4.622;2023-02-28T02:11:34;3.42;;;1.75;;
48241;SDS011;34041;51.812;4.622;2023-02-28T02:14:57;3.47;;;1.65;;
48241;SDS011;34041;51.812;4.622;2023-02-28T02:18:01;4.82;;;2.33;;
48241;SDS011;34041;51.812;4.622;2023-02-28T02:34:04;3.10;;;1.63;;
48241;SDS011;34041;51.812;4.622;2023-02-28T02:37:21;3.40;;;1.95;;
48241;SDS011;34041;51.812;4.622;2023-02-28T02:40:23;4.18;;;1.65;;
48241;SDS011;34041;51.812;4.622;2023-02-28T02:43:29;4.60;;;2.58;;
48241;SDS011;34041;51.812;4.622;2023-02-28T02:46:33;3.53;;;2.00;;
48241;SDS011;34041;51.812;4.622;2023-02-28T02:49:36;3.92;;;1.95;;
48241;SDS011;34041;51.812;4.622;2023-02-28T02:52:37;4.03;;;1.60;;
48241;SDS011;34041;51.812;4.622;2023-02-28T02:55:40;6.10;;;2.13;;
48241;SDS011;34041;51.812;4.622;2023-02-28T02:58:41;5.47;;;1.85;;
48241;SDS011;34041;51.812;4.622;2023-02-28T03:01:42;2.72;;;1.55;;
48241;SDS011;34041;51.812;4.622;2023-02-28T03:04:46;4.03;;;1.95;;
48241;SDS011;34041;51.812;4.622;2023-02-28T03:07:48;7.70;;;2.10;;
48241;SDS011;34041;51.812;4.622;2023-02-28T03:10:50;2.92;;;2.10;;
48241;SDS011;34041;51.812;4.622;2023-02-28T03:20:15;4.55;;;2.13;;
48241;SDS011;34041;51.812;4.622;2023-02-28T03:23:21;2.78;;;1.77;;
48241;SDS011;34041;51.812;4.622;2023-02-28T03:26:24;4.43;;;1.55;;
48241;SDS011;34041;51.812;4.622;2023-02-28T03:29:34;5.57;;;2.35;;
48241;SDS011;34041;51.812;4.622;2023-02-28T03:32:36;2.75;;;1.75;;
48241;SDS011;34041;51.812;4.622;2023-02-28T03:35:39;3.30;;;2.13;;
48241;SDS011;34041;51.812;4.622;2023-02-28T03:41:54;3.85;;;2.13;;
48241;SDS011;34041;51.812;4.622;2023-02-28T03:44:57;2.88;;;1.92;;
48241;SDS011;34041;51.812;4.622;2023-02-28T03:48:00;5.45;;;2.30;;
48241;SDS011;34041;51.812;4.622;2023-02-28T03:51:01;3.58;;;2.00;;
48241;SDS011;34041;51.812;4.622;2023-02-28T03:54:04;3.92;;;2.17;;
48241;SDS011;34041;51.812;4.622;2023-02-28T04:00:27;3.75;;;2.35;;
48241;SDS011;34041;51.812;4.622;2023-02-28T04:03:29;4.55;;;2.08;;
48241;SDS011;34041;51.812;4.622;2023-02-28T04:06:31;6.00;;;2.43;;
48241;SDS011;34041;51.812;4.622;2023-02-28T04:09:32;4.72;;;2.53;;
48241;SDS011;34041;51.812;4.622;2023-02-28T04:12:32;4.00;;;1.95;;
48241;SDS011;34041;51.812;4.622;2023-02-28T04:15:32;5.60;;;3.17;;
48241;SDS011;34041;51.812;4.622;2023-02-28T04:18:32;6.23;;;2.90;;
48241;SDS011;34041;51.812;4.622;2023-02-28T04:21:46;3.38;;;1.95;;
48241;SDS011;34041;51.812;4.622;2023-02-28T04:24:47;4.50;;;2.42;;
48241;SDS011;34041;51.812;4.622;2023-02-28T04:27:47;3.78;;;2.33;;
48241;SDS011;34041;51.812;4.622;2023-02-28T04:30:47;4.60;;;2.45;;
48241;SDS011;34041;51.812;4.622;2023-02-28T04:33:47;3.40;;;1.97;;
48241;SDS011;34041;51.812;4.622;2023-02-28T04:36:48;4.80;;;2.28;;
48241;SDS011;34041;51.812;4.622;2023-02-28T04:39:53;3.15;;;2.00;;
48241;SDS011;34041;51.812;4.622;2023-02-28T04:42:54;5.82;;;2.55;;
48241;SDS011;34041;51.812;4.622;2023-02-28T04:45:54;4.60;;;2.30;;
48241;SDS011;34041;51.812;4.622;2023-02-28T04:48:57;3.83;;;2.33;;
48241;SDS011;34041;51.812;4.622;2023-02-28T04:51:59;4.28;;;2.55;;
48241;SDS011;34041;51.812;4.622;2023-02-28T04:54:59;5.67;;;3.13;;
48241;SDS011;34041;51.812;4.622;2023-02-28T04:57:59;4.75;;;2.13;;
48241;SDS011;34041;51.812;4.622;2023-02-28T05:01:04;4.30;;;2.37;;
48241;SDS011;34041;51.812;4.622;2023-02-28T05:04:04;3.83;;;2.92;;
48241;SDS011;34041;51.812;4.622;2023-02-28T05:07:05;3.13;;;2.15;;
48241;SDS011;34041;51.812;4.622;2023-02-28T05:10:06;3.07;;;2.70;;
48241;SDS011;34041;51.812;4.622;2023-02-28T05:13:06;7.47;;;2.38;;
48241;SDS011;34041;51.812;4.622;2023-02-28T05:16:06;5.00;;;2.17;;
48241;SDS011;34041;51.812;4.622;2023-02-28T05:19:07;4.13;;;2.92;;
48241;SDS011;34041;51.812;4.622;2023-02-28T05:22:11;4.85;;;2.38;;
48241;SDS011;34041;51.812;4.622;2023-02-28T05:25:16;3.95;;;2.65;;
48241;SDS011;34041;51.812;4.622;2023-02-28T05:28:17;3.83;;;2.45;;
48241;SDS011;34041;51.812;4.622;2023-02-28T05:31:17;5.47;;;2.93;;
48241;SDS011;34041;51.812;4.622;2023-02-28T05:34:18;4.72;;;2.67;;
48241;SDS011;34041;51.812;4.622;2023-02-28T05:37:18;3.83;;;2.45;;
48241;SDS011;34041;51.812;4.622;2023-02-28T05:40:18;4.13;;;2.47;;
48241;SDS011;34041;51.812;4.622;2023-02-28T05:43:20;3.83;;;2.63;;
48241;SDS011;34041;51.812;4.622;2023-02-28T05:46:20;3.23;;;1.70;;
48241;SDS011;34041;51.812;4.622;2023-02-28T05:49:20;3.58;;;2.22;;
48241;SDS011;34041;51.812;4.622;2023-02-28T05:52:21;4.35;;;2.42;;
48241;SDS011;34041;51.812;4.622;2023-02-28T05:55:21;6.63;;;2.73;;
48241;SDS011;34041;51.812;4.622;2023-02-28T05:58:21;3.65;;;1.90;;
48241;SDS011;34041;51.812;4.622;2023-02-28T06:01:32;2.83;;;1.98;;
48241;SDS011;34041;51.812;4.622;2023-02-28T06:04:33;4.22;;;2.22;;
48241;SDS011;34041;51.812;4.622;2023-02-28T06:07:33;4.03;;;2.35;;
48241;SDS011;34041;51.812;4.622;2023-02-28T06:10:34;6.05;;;2.50;;
48241;SDS011;34041;51.812;4.622;2023-02-28T06:13:34;5.57;;;2.45;;
48241;SDS011;34041;51.812;4.622;2023-02-28T06:16:34;3.33;;;1.93;;
48241;SDS011;34041;51.812;4.622;2023-02-28T06:19:36;5.57;;;2.15;;
48241;SDS011;34041;51.812;4.622;2023-02-28T06:22:39;4.20;;;1.75;;
48241;SDS011;34041;51.812;4.622;2023-02-28T06:25:39;3.13;;;1.90;;
48241;SDS011;34041;51.812;4.622;2023-02-28T06:28:39;4.38;;;2.75;;
48241;SDS011;34041;51.812;4.622;2023-02-28T06:31:40;3.65;;;2.00;;
48241;SDS011;34041;51.812;4.622;2023-02-28T06:34:40;4.70;;;2.05;;
48241;SDS011;34041;51.812;4.622;2023-02-28T06:37:40;4.05;;;1.98;;
48241;SDS011;34041;51.812;4.622;2023-02-28T06:40:41;4.55;;;1.92;;
48241;SDS011;34041;51.812;4.622;2023-02-28T06:43:42;3.55;;;2.17;;
48241;SDS011;34041;51.812;4.622;2023-02-28T06:46:43;5.95;;;1.60;;
48241;SDS011;34041;51.812;4.622;2023-02-28T06:49:44;2.85;;;1.77;;
48241;SDS011;34041;51.812;4.622;2023-02-28T06:52:45;3.60;;;2.00;;
48241;SDS011;34041;51.812;4.622;2023-02-28T06:55:45;3.83;;;2.20;;
48241;SDS011;34041;51.812;4.622;2023-02-28T06:58:46;3.50;;;1.63;;
48241;SDS011;34041;51.812;4.622;2023-02-28T07:01:46;3.47;;;1.80;;
48241;SDS011;34041;51.812;4.622;2023-02-28T07:04:46;3.03;;;1.67;;
48241;SDS011;34041;51.812;4.622;2023-02-28T07:07:47;3.33;;;2.25;;
48241;SDS011;34041;51.812;4.622;2023-02-28T07:10:47;3.45;;;1.95;;
48241;SDS011;34041;51.812;4.622;2023-02-28T07:13:54;2.90;;;1.60;;
48241;SDS011;34041;51.812;4.622;2023-02-28T07:16:54;3.53;;;1.88;;
48241;SDS011;34041;51.812;4.622;2023-02-28T07:19:55;4.90;;;1.70;;
48241;SDS011;34041;51.812;4.622;2023-02-28T07:22:55;3.33;;;1.43;;
48241;SDS011;34041;51.812;4.622;2023-02-28T07:25:56;3.17;;;2.03;;
48241;SDS011;34041;51.812;4.622;2023-02-28T07:28:56;3.17;;;1.25;;
48241;SDS011;34041;51.812;4.622;2023-02-28T07:31:57;2.63;;;1.20;;
48241;SDS011;34041;51.812;4.622;2023-02-28T07:34:57;2.95;;;1.52;;
48241;SDS011;34041;51.812;4.622;2023-02-28T07:37:58;2.75;;;1.80;;
48241;SDS011;34041;51.812;4.622;2023-02-28T07:40:58;2.63;;;2.03;;
48241;SDS011;34041;51.812;4.622;2023-02-28T07:43:59;3.42;;;1.75;;
48241;SDS011;34041;51.812;4.622;2023-02-28T07:46:59;4.65;;;2.10;;
48241;SDS011;34041;51.812;4.622;2023-02-28T07:49:59;3.80;;;1.67;;
48241;SDS011;34041;51.812;4.622;2023-02-28T07:53:00;3.40;;;1.90;;
48241;SDS011;34041;51.812;4.622;2023-02-28T07:56:00;3.45;;;2.17;;
48241;SDS011;34041;51.812;4.622;2023-02-28T07:59:01;3.53;;;1.58;;
48241;SDS011;34041;51.812;4.622;2023-02-28T08:02:01;2.15;;;1.20;;
48241;SDS011;34041;51.812;4.622;2023-02-28T08:05:01;3.97;;;1.57;;
48241;SDS011;34041;51.812;4.622;2023-02-28T08:08:02;3.00;;;1.75;;
48241;SDS011;34041;51.812;4.622;2023-02-28T08:11:02;3.42;;;1.95;;
48241;SDS011;34041;51.812;4.622;2023-02-28T08:14:02;2.60;;;1.60;;
48241;SDS011;34041;51.812;4.622;2023-02-28T08:17:03;3.08;;;1.70;;
48241;SDS011;34041;51.812;4.622;2023-02-28T08:20:04;3.30;;;1.98;;
48241;SDS011;34041;51.812;4.622;2023-02-28T08:23:04;4.40;;;1.60;;
48241;SDS011;34041;51.812;4.622;2023-02-28T08:26:04;4.23;;;1.70;;
48241;SDS011;34041;51.812;4.622;2023-02-28T08:29:05;3.42;;;1.80;;
48241;SDS011;34041;51.812;4.622;2023-02-28T08:32:05;3.53;;;1.73;;
48241;SDS011;34041;51.812;4.622;2023-02-28T08:35:06;4.40;;;1.77;;
48241;SDS011;34041;51.812;4.622;2023-02-28T08:38:06;3.13;;;1.75;;
48241;SDS011;34041;51.812;4.622;2023-02-28T08:41:08;3.57;;;1.70;;
48241;SDS011;34041;51.812;4.622;2023-02-28T08:44:09;2.97;;;1.80;;
48241;SDS011;34041;51.812;4.622;2023-02-28T08:47:09;3.55;;;1.70;;
48241;SDS011;34041;51.812;4.622;2023-02-28T08:50:10;2.60;;;1.60;;
48241;SDS011;34041;51.812;4.622;2023-02-28T08:53:10;3.35;;;1.65;;
48241;SDS011;34041;51.812;4.622;2023-02-28T08:56:11;4.13;;;1.60;;
48241;SDS011;34041;51.812;4.622;2023-02-28T08:59:11;3.35;;;1.85;;
48241;SDS011;34041;51.812;4.622;2023-02-28T09:02:12;3.47;;;1.58;;
48241;SDS011;34041;51.812;4.622;2023-02-28T09:05:13;3.40;;;2.10;;
48241;SDS011;34041;51.812;4.622;2023-02-28T09:08:13;2.88;;;1.38;;
48241;SDS011;34041;51.812;4.622;2023-02-28T09:11:13;3.33;;;1.60;;
48241;SDS011;34041;51.812;4.622;2023-02-28T09:14:14;4.22;;;1.92;;
48241;SDS011;34041;51.812;4.622;2023-02-28T09:17:14;2.50;;;1.60;;
48241;SDS011;34041;51.812;4.622;2023-02-28T09:20:15;3.70;;;1.92;;
48241;SDS011;34041;51.812;4.622;2023-02-28T09:23:15;5.00;;;2.33;;
48241;SDS011;34041;51.812;4.622;2023-02-28T09:26:16;3.70;;;1.90;;
48241;SDS011;34041;51.812;4.622;2023-02-28T09:29:17;3.35;;;1.90;;
48241;SDS011;34041;51.812;4.622;2023-02-28T09:32:17;5.25;;;1.67;;
48241;SDS011;34041;51.812;4.622;2023-02-28T09:35:18;4.53;;;1.65;;
48241;SDS011;34041;51.812;4.622;2023-02-28T09:38:18;3.33;;;2.13;;
48241;SDS011;34041;51.812;4.622;2023-02-28T09:41:21;3.05;;;1.67;;
48241;SDS011;34041;51.812;4.622;2023-02-28T09:47:31;3.47;;;2.08;;
48241;SDS011;34041;51.812;4.622;2023-02-28T09:50:40;3.13;;;1.65;;
48241;SDS011;34041;51.812;4.622;2023-02-28T09:53:42;2.90;;;1.63;;
48241;SDS011;34041;51.812;4.622;2023-02-28T09:56:42;3.67;;;1.63;;
48241;SDS011;34041;51.812;4.622;2023-02-28T09:59:49;2.50;;;2.00;;
48241;SDS011;34041;51.812;4.622;2023-02-28T10:02:58;3.03;;;1.35;;
48241;SDS011;34041;51.812;4.622;2023-02-28T10:06:07;3.45;;;2.33;;
48241;SDS011;34041;51.812;4.622;2023-02-28T10:09:11;3.50;;;2.00;;
48241;SDS011;34041;51.812;4.622;2023-02-28T10:12:13;3.78;;;1.48;;
48241;SDS011;34041;51.812;4.622;2023-02-28T10:15:15;4.68;;;1.67;;
48241;SDS011;34041;51.812;4.622;2023-02-28T10:18:19;2.63;;;1.60;;
48241;SDS011;34041;51.812;4.622;2023-02-28T10:21:21;5.17;;;2.03;;
48241;SDS011;34041;51.812;4.622;2023-02-28T10:24:26;3.75;;;1.90;;
48241;SDS011;34041;51.812;4.622;2023-02-28T10:27:29;3.38;;;1.90;;
48241;SDS011;34041;51.812;4.622;2023-02-28T10:30:30;2.90;;;1.65;;
48241;SDS011;34041;51.812;4.622;2023-02-28T10:33:32;3.33;;;1.60;;
48241;SDS011;34041;51.812;4.622;2023-02-28T10:36:34;4.47;;;1.40;;
48241;SDS011;34041;51.812;4.622;2023-02-28T10:39:39;2.27;;;1.60;;
48241;SDS011;34041;51.812;4.622;2023-02-28T10:42:39;2.35;;;1.60;;
48241;SDS011;34041;51.812;4.622;2023-02-28T10:45:51;3.37;;;1.57;;
48241;SDS011;34041;51.812;4.622;2023-02-28T10:49:05;2.40;;;1.52;;
48241;SDS011;34041;51.812;4.622;2023-02-28T10:52:07;2.42;;;1.58;;
48241;SDS011;34041;51.812;4.622;2023-02-28T10:55:22;2.70;;;1.33;;
48241;SDS011;34041;51.812;4.622;2023-02-28T10:58:42;2.47;;;1.45;;
48241;SDS011;34041;51.812;4.622;2023-02-28T11:01:45;2.75;;;1.80;;
48241;SDS011;34041;51.812;4.622;2023-02-28T11:04:48;3.10;;;1.80;;
48241;SDS011;34041;51.812;4.622;2023-02-28T11:07:56;3.13;;;1.40;;
48241;SDS011;34041;51.812;4.622;2023-02-28T11:10:57;3.15;;;1.77;;
48241;SDS011;34041;51.812;4.622;2023-02-28T11:14:04;3.13;;;1.70;;
48241;SDS011;34041;51.812;4.622;2023-02-28T11:17:18;2.70;;;1.23;;
48241;SDS011;34041;51.812;4.622;2023-02-28T11:20:21;2.97;;;1.45;;
48241;SDS011;34041;51.812;4.622;2023-02-28T11:23:24;2.97;;;1.42;;
48241;SDS011;34041;51.812;4.622;2023-02-28T11:26:38;2.35;;;1.40;;
48241;SDS011;34041;51.812;4.622;2023-02-28T11:29:39;2.40;;;1.40;;
48241;SDS011;34041;51.812;4.622;2023-02-28T11:32:49;2.72;;;1.42;;
48241;SDS011;34041;51.812;4.622;2023-02-28T11:35:50;2.75;;;1.58;;
48241;SDS011;34041;51.812;4.622;2023-02-28T11:38:51;2.40;;;1.33;;
48241;SDS011;34041;51.812;4.622;2023-02-28T11:42:04;3.10;;;1.40;;
48241;SDS011;34041;51.812;4.622;2023-02-28T11:57:44;2.78;;;1.40;;
48241;SDS011;34041;51.812;4.622;2023-02-28T12:00:54;3.10;;;1.48;;
48241;SDS011;34041;51.812;4.622;2023-02-28T12:04:02;2.38;;;1.58;;
48241;SDS011;34041;51.812;4.622;2023-02-28T12:07:15;6.13;;;2.25;;
48241;SDS011;34041;51.812;4.622;2023-02-28T12:10:20;6.82;;;2.75;;
48241;SDS011;34041;51.812;4.622;2023-02-28T12:13:26;7.15;;;2.38;;
48241;SDS011;34041;51.812;4.622;2023-02-28T12:16:43;5.35;;;2.03;;
48241;SDS011;34041;51.812;4.622;2023-02-28T12:29:34;5.60;;;2.13;;
48241;SDS011;34041;51.812;4.622;2023-02-28T12:32:37;3.88;;;1.67;;
48241;SDS011;34041;51.812;4.622;2023-02-28T12:35:58;5.38;;;2.53;;
48241;SDS011;34041;51.812;4.622;2023-02-28T12:41:59;3.03;;;1.40;;
48241;SDS011;34041;51.812;4.622;2023-02-28T12:45:03;3.33;;;1.70;;
48241;SDS011;34041;51.812;4.622;2023-02-28T12:51:07;3.38;;;1.33;;
48241;SDS011;34041;51.812;4.622;2023-02-28T13:01:12;3.95;;;1.23;;
48241;SDS011;34041;51.812;4.622;2023-02-28T13:10:38;2.63;;;1.58;;
48241;SDS011;34041;51.812;4.622;2023-02-28T13:13:38;2.00;;;1.33;;
48241;SDS011;34041;51.812;4.622;2023-02-28T13:20:03;4.03;;;1.65;;
48241;SDS011;34041;51.812;4.622;2023-02-28T13:23:03;2.72;;;1.55;;
48241;SDS011;34041;51.812;4.622;2023-02-28T13:29:31;2.30;;;1.73;;
48241;SDS011;34041;51.812;4.622;2023-02-28T13:32:34;3.00;;;1.63;;
48241;SDS011;34041;51.812;4.622;2023-02-28T13:35:37;2.83;;;1.60;;
48241;SDS011;34041;51.812;4.622;2023-02-28T13:38:39;3.30;;;1.48;;
48241;SDS011;34041;51.812;4.622;2023-02-28T13:41:41;3.85;;;1.65;;
48241;SDS011;34041;51.812;4.622;2023-02-28T13:45:44;2.45;;;1.50;;
48241;SDS011;34041;51.812;4.622;2023-02-28T13:48:15;3.20;;;1.70;;
48241;SDS011;34041;51.812;4.622;2023-02-28T13:54:58;2.60;;;1.25;;
48241;SDS011;34041;51.812;4.622;2023-02-28T14:02:02;2.58;;;1.48;;
48241;SDS011;34041;51.812;4.622;2023-02-28T14:07:53;1.80;;;1.15;;
48241;SDS011;34041;51.812;4.622;2023-02-28T14:11:04;3.65;;;1.42;;
48241;SDS011;34041;51.812;4.622;2023-02-28T14:14:06;2.22;;;1.63;;
48241;SDS011;34041;51.812;4.622;2023-02-28T14:17:07;1.88;;;1.13;;
48241;SDS011;34041;51.812;4.622;2023-02-28T14:20:14;2.30;;;1.50;;
48241;SDS011;34041;51.812;4.622;2023-02-28T14:23:21;3.17;;;1.55;;
48241;SDS011;34041;51.812;4.622;2023-02-28T14:36:23;2.85;;;1.15;;
48241;SDS011;34041;51.812;4.622;2023-02-28T14:39:25;4.18;;;1.77;;
48241;SDS011;34041;51.812;4.622;2023-02-28T14:42:30;2.97;;;1.60;;
48241;SDS011;34041;51.812;4.622;2023-02-28T14:45:32;2.72;;;1.50;;
48241;SDS011;34041;51.812;4.622;2023-02-28T14:48:32;3.65;;;1.70;;
48241;SDS011;34041;51.812;4.622;2023-02-28T14:51:33;4.28;;;1.73;;
48241;SDS011;34041;51.812;4.622;2023-02-28T14:54:33;2.85;;;1.60;;
48241;SDS011;34041;51.812;4.622;2023-02-28T14:57:35;2.72;;;1.35;;
48241;SDS011;34041;51.812;4.622;2023-02-28T15:00:49;2.55;;;1.73;;
48241;SDS011;34041;51.812;4.622;2023-02-28T15:03:56;2.65;;;1.60;;
48241;SDS011;34041;51.812;4.622;2023-02-28T15:07:10;2.90;;;1.42;;
48241;SDS011;34041;51.812;4.622;2023-02-28T15:13:14;2.83;;;2.03;;
48241;SDS011;34041;51.812;4.622;2023-02-28T15:19:24;2.20;;;1.40;;
48241;SDS011;34041;51.812;4.622;2023-02-28T15:22:31;2.88;;;1.75;;
48241;SDS011;34041;51.812;4.622;2023-02-28T15:25:34;3.90;;;1.98;;
48241;SDS011;34041;51.812;4.622;2023-02-28T15:28:34;2.22;;;1.52;;
48241;SDS011;34041;51.812;4.622;2023-02-28T15:31:39;2.50;;;1.58;;
48241;SDS011;34041;51.812;4.622;2023-02-28T15:34:42;2.60;;;1.55;;
48241;SDS011;34041;51.812;4.622;2023-02-28T15:37:46;4.82;;;1.90;;
48241;SDS011;34041;51.812;4.622;2023-02-28T15:46:58;2.70;;;1.65;;
48241;SDS011;34041;51.812;4.622;2023-02-28T15:50:08;3.22;;;1.73;;
48241;SDS011;34041;51.812;4.622;2023-02-28T15:53:16;3.08;;;1.48;;
48241;SDS011;34041;51.812;4.622;2023-02-28T15:56:24;2.83;;;1.60;;
48241;SDS011;34041;51.812;4.622;2023-02-28T15:59:28;3.75;;;2.00;;
48241;SDS011;34041;51.812;4.622;2023-02-28T16:02:34;2.35;;;1.67;;
48241;SDS011;34041;51.812;4.622;2023-02-28T16:05:34;2.40;;;1.60;;
48241;SDS011;34041;51.812;4.622;2023-02-28T16:08:35;2.80;;;1.70;;
48241;SDS011;34041;51.812;4.622;2023-02-28T16:11:37;2.60;;;1.50;;
48241;SDS011;34041;51.812;4.622;2023-02-28T16:14:38;2.40;;;1.80;;
48241;SDS011;34041;51.812;4.622;2023-02-28T16:17:40;2.33;;;1.67;;
48241;SDS011;34041;51.812;4.622;2023-02-28T16:20:40;3.70;;;1.80;;
48241;SDS011;34041;51.812;4.622;2023-02-28T16:23:41;3.67;;;2.38;;
48241;SDS011;34041;51.812;4.622;2023-02-28T16:26:42;2.47;;;1.42;;
48241;SDS011;34041;51.812;4.622;2023-02-28T16:29:45;3.17;;;1.88;;
48241;SDS011;34041;51.812;4.622;2023-02-28T16:32:46;4.57;;;1.55;;
48241;SDS011;34041;51.812;4.622;2023-02-28T16:35:46;2.53;;;1.60;;
48241;SDS011;34041;51.812;4.622;2023-02-28T16:38:47;3.35;;;1.80;;
48241;SDS011;34041;51.812;4.622;2023-02-28T16:41:47;3.60;;;2.03;;
48241;SDS011;34041;51.812;4.622;2023-02-28T16:44:48;4.22;;;2.10;;
48241;SDS011;34041;51.812;4.622;2023-02-28T16:47:48;3.67;;;1.83;;
48241;SDS011;34041;51.812;4.622;2023-02-28T16:50:48;2.67;;;1.85;;
48241;SDS011;34041;51.812;4.622;2023-02-28T16:53:49;2.78;;;1.70;;
48241;SDS011;34041;51.812;4.622;2023-02-28T16:56:49;2.90;;;1.80;;
48241;SDS011;34041;51.812;4.622;2023-02-28T16:59:49;3.08;;;2.08;;
48241;SDS011;34041;51.812;4.622;2023-02-28T17:02:50;4.25;;;2.20;;
48241;SDS011;34041;51.812;4.622;2023-02-28T17:05:51;3.15;;;1.92;;
48241;SDS011;34041;51.812;4.622;2023-02-28T17:08:51;3.40;;;1.90;;
48241;SDS011;34041;51.812;4.622;2023-02-28T17:11:51;2.60;;;2.30;;
48241;SDS011;34041;51.812;4.622;2023-02-28T17:14:52;2.42;;;1.73;;
48241;SDS011;34041;51.812;4.622;2023-02-28T17:17:53;3.40;;;2.27;;
48241;SDS011;34041;51.812;4.622;2023-02-28T17:20:53;2.77;;;1.93;;
48241;SDS011;34041;51.812;4.622;2023-02-28T17:23:53;2.70;;;1.60;;
48241;SDS011;34041;51.812;4.622;2023-02-28T17:26:53;2.92;;;1.70;;
48241;SDS011;34041;51.812;4.622;2023-02-28T17:29:54;3.83;;;2.00;;
48241;SDS011;34041;51.812;4.622;2023-02-28T17:32:57;4.05;;;2.03;;
48241;SDS011;34041;51.812;4.622;2023-02-28T17:35:57;2.75;;;1.83;;
48241;SDS011;34041;51.812;4.622;2023-02-28T17:38:58;3.50;;;2.38;;
48241;SDS011;34041;51.812;4.622;2023-02-28T17:41:58;2.83;;;2.00;;
48241;SDS011;34041;51.812;4.622;2023-02-28T17:44:58;4.13;;;2.10;;
48241;SDS011;34041;51.812;4.622;2023-02-28T17:47:58;3.40;;;1.97;;
48241;SDS011;34041;51.812;4.622;2023-02-28T17:50:59;3.17;;;2.17;;
48241;SDS011;34041;51.812;4.622;2023-02-28T17:53:59;3.22;;;2.03;;
48241;SDS011;34041;51.812;4.622;2023-02-28T17:56:59;2.90;;;1.85;;
48241;SDS011;34041;51.812;4.622;2023-02-28T18:00:00;4.05;;;2.08;;
48241;SDS011;34041;51.812;4.622;2023-02-28T18:03:05;3.88;;;1.80;;
48241;SDS011;34041;51.812;4.622;2023-02-28T18:06:05;2.92;;;1.88;;
48241;SDS011;34041;51.812;4.622;2023-02-28T18:09:06;3.25;;;1.92;;
48241;SDS011;34041;51.812;4.622;2023-02-28T18:12:06;3.83;;;2.00;;
48241;SDS011;34041;51.812;4.622;2023-02-28T18:15:07;3.80;;;2.10;;
48241;SDS011;34041;51.812;4.622;2023-02-28T18:18:07;5.40;;;2.88;;
48241;SDS011;34041;51.812;4.622;2023-02-28T18:21:08;4.38;;;2.65;;
48241;SDS011;34041;51.812;4.622;2023-02-28T18:24:08;3.35;;;1.90;;
48241;SDS011;34041;51.812;4.622;2023-02-28T18:27:09;2.67;;;2.10;;
48241;SDS011;34041;51.812;4.622;2023-02-28T18:30:10;3.25;;;2.08;;
48241;SDS011;34041;51.812;4.622;2023-02-28T18:33:11;4.20;;;2.30;;
48241;SDS011;34041;51.812;4.622;2023-02-28T18:36:11;6.10;;;3.17;;
48241;SDS011;34041;51.812;4.622;2023-02-28T18:39:11;4.25;;;2.47;;
48241;SDS011;34041;51.812;4.622;2023-02-28T18:42:12;3.47;;;2.37;;
48241;SDS011;34041;51.812;4.622;2023-02-28T18:45:12;3.40;;;2.40;;
48241;SDS011;34041;51.812;4.622;2023-02-28T18:48:12;3.38;;;2.60;;
48241;SDS011;34041;51.812;4.622;2023-02-28T18:51:15;4.90;;;3.13;;
48241;SDS011;34041;51.812;4.622;2023-02-28T18:54:15;3.00;;;2.40;;
48241;SDS011;34041;51.812;4.622;2023-02-28T18:57:16;9.13;;;2.50;;
48241;SDS011;34041;51.812;4.622;2023-02-28T19:00:16;4.67;;;2.90;;
48241;SDS011;34041;51.812;4.622;2023-02-28T19:06:22;3.30;;;2.20;;
48241;SDS011;34041;51.812;4.622;2023-02-28T19:09:22;4.47;;;2.30;;
48241;SDS011;34041;51.812;4.622;2023-02-28T19:12:22;4.43;;;2.67;;
48241;SDS011;34041;51.812;4.622;2023-02-28T19:15:22;4.25;;;2.72;;
48241;SDS011;34041;51.812;4.622;2023-02-28T19:18:23;5.33;;;2.53;;
48241;SDS011;34041;51.812;4.622;2023-02-28T19:21:23;3.73;;;2.53;;
48241;SDS011;34041;51.812;4.622;2023-02-28T19:24:23;4.07;;;2.83;;
48241;SDS011;34041;51.812;4.622;2023-02-28T19:27:24;5.97;;;3.42;;
48241;SDS011;34041;51.812;4.622;2023-02-28T19:30:24;4.63;;;2.70;;
48241;SDS011;34041;51.812;4.622;2023-02-28T19:33:25;3.78;;;2.88;;
48241;SDS011;34041;51.812;4.622;2023-02-28T19:36:25;4.87;;;3.47;;
48241;SDS011;34041;51.812;4.622;2023-02-28T19:39:26;5.70;;;2.97;;
48241;SDS011;34041;51.812;4.622;2023-02-28T19:42:26;4.70;;;3.17;;
48241;SDS011;34041;51.812;4.622;2023-02-28T19:45:32;4.90;;;3.35;;
48241;SDS011;34041;51.812;4.622;2023-02-28T19:48:32;3.60;;;2.70;;
48241;SDS011;34041;51.812;4.622;2023-02-28T19:51:32;5.73;;;4.00;;
48241;SDS011;34041;51.812;4.622;2023-02-28T19:54:33;4.60;;;3.38;;
48241;SDS011;34041;51.812;4.622;2023-02-28T19:57:34;3.63;;;2.83;;
48241;SDS011;34041;51.812;4.622;2023-02-28T20:00:34;4.15;;;2.55;;
48241;SDS011;34041;51.812;4.622;2023-02-28T20:03:34;4.63;;;3.57;;
48241;SDS011;34041;51.812;4.622;2023-02-28T20:06:34;4.00;;;3.60;;
48241;SDS011;34041;51.812;4.622;2023-02-28T20:09:35;4.38;;;3.15;;
48241;SDS011;34041;51.812;4.622;2023-02-28T20:12:35;4.68;;;3.40;;